createdAt,value
2019-02-25T00:01:32.125Z,17.07
2019-02-25T00:03:35.556Z,15.80
2019-02-25T00:05:39.173Z,14.65
2019-02-25T00:07:42.462Z,15.45
2019-02-25T00:09:45.740Z,14.07
2019-02-25T00:11:49.020Z,13.58
2019-02-25T00:13:52.308Z,15.78
2019-02-25T00:15:55.768Z,14.35
2019-02-25T00:17:59.045Z,15.00
2019-02-25T00:20:02.659Z,14.35
2019-02-25T00:22:06.948Z,14.00
2019-02-25T00:24:10.569Z,13.35
2019-02-25T00:26:14.197Z,14.43
2019-02-25T00:28:17.764Z,14.55
2019-02-25T00:30:21.045Z,15.88
2019-02-25T00:32:24.506Z,14.73
2019-02-25T00:34:28.660Z,14.13
2019-02-25T00:36:32.316Z,13.88
2019-02-25T00:38:35.753Z,14.80
2019-02-25T00:40:39.293Z,14.43
2019-02-25T00:42:42.632Z,14.53
2019-02-25T00:44:46.020Z,14.45
2019-02-25T00:46:49.308Z,13.72
2019-02-25T00:48:52.921Z,13.60
2019-02-25T00:50:56.296Z,13.70
2019-02-25T00:53:00.013Z,14.93
2019-02-25T00:55:04.430Z,14.25
2019-02-25T00:57:09.005Z,13.95
2019-02-25T00:59:12.724Z,13.18
2019-02-25T01:01:16.072Z,14.28
2019-02-25T01:03:19.345Z,17.20
2019-02-25T01:05:22.725Z,16.42
2019-02-25T01:07:26.004Z,14.03
2019-02-25T01:09:29.412Z,14.45
2019-02-25T01:11:32.877Z,14.28
2019-02-25T01:13:36.585Z,14.73
2019-02-25T01:15:39.932Z,14.40
2019-02-25T01:17:43.319Z,13.85
2019-02-25T01:19:46.638Z,15.45
2019-02-25T01:21:49.916Z,14.40
2019-02-25T01:23:53.189Z,17.50
2019-02-25T01:25:56.724Z,15.60
2019-02-25T01:28:00.061Z,15.58
2019-02-25T01:30:04.514Z,15.38
2019-02-25T01:32:07.933Z,16.75
2019-02-25T01:34:11.557Z,14.58
2019-02-25T01:36:14.833Z,16.25
2019-02-25T01:38:18.105Z,14.47
2019-02-25T01:40:22.224Z,14.58
2019-02-25T01:42:25.944Z,15.32
2019-02-25T01:44:29.325Z,16.73
2019-02-25T01:46:32.596Z,15.40
2019-02-25T01:48:36.056Z,15.98
2019-02-25T01:50:40.213Z,15.25
2019-02-25T01:52:43.562Z,16.75
2019-02-25T01:54:46.844Z,16.37
2019-02-25T01:56:50.129Z,15.88
2019-02-25T01:58:53.557Z,16.65
2019-02-25T02:00:56.832Z,15.88
2019-02-25T02:03:00.208Z,18.57
2019-02-25T02:05:03.656Z,17.07
2019-02-25T02:07:06.929Z,16.93
2019-02-25T02:09:10.377Z,17.27
2019-02-25T02:11:13.764Z,17.20
2019-02-25T02:13:17.044Z,17.85
2019-02-25T02:15:21.396Z,16.93
2019-02-25T02:17:24.956Z,17.75
2019-02-25T02:19:28.308Z,19.50
2019-02-25T02:21:31.945Z,17.15
2019-02-25T02:23:35.220Z,18.98
2019-02-25T02:25:38.605Z,15.68
2019-02-25T02:27:41.983Z,17.48
2019-02-25T02:29:45.434Z,18.20
2019-02-25T02:31:49.730Z,18.32
2019-02-25T02:33:53.088Z,17.77
2019-02-25T02:35:56.436Z,17.70
2019-02-25T02:37:59.723Z,17.42
2019-02-25T02:40:03.344Z,18.05
2019-02-25T02:42:15.297Z,15.93
2019-02-25T02:44:18.650Z,17.00
2019-02-25T02:46:42.164Z,16.70
2019-02-25T02:48:48.881Z,16.75
2019-02-25T02:50:52.259Z,15.15
2019-02-25T02:52:55.810Z,14.60
2019-02-25T02:54:59.268Z,14.55
2019-02-25T02:57:02.877Z,14.45
2019-02-25T02:59:06.143Z,14.75
2019-02-25T03:01:09.420Z,14.90
2019-02-25T03:03:13.056Z,16.55
2019-02-25T03:05:16.995Z,15.38
2019-02-25T03:07:20.619Z,15.18
2019-02-25T03:09:23.977Z,14.87
2019-02-25T03:11:27.574Z,14.93
2019-02-25T03:13:31.167Z,17.55
2019-02-25T03:15:34.448Z,20.27
2019-02-25T03:17:37.724Z,19.55
2019-02-25T03:19:41.357Z,17.23
2019-02-25T03:21:44.736Z,17.75
2019-02-25T03:23:48.020Z,16.67
2019-02-25T03:25:51.733Z,14.53
2019-02-25T03:27:55.930Z,14.33
2019-02-25T03:30:00.230Z,14.18
2019-02-25T03:32:03.595Z,15.35
2019-02-25T03:34:07.389Z,15.40
2019-02-25T03:36:10.899Z,14.20
2019-02-25T03:38:14.549Z,14.10
2019-02-25T03:40:22.958Z,12.88
2019-02-25T03:42:26.680Z,13.85
2019-02-25T03:44:30.360Z,13.25
2019-02-25T03:46:34.164Z,13.50
2019-02-25T03:48:37.527Z,12.82
2019-02-25T03:50:40.879Z,13.72
2019-02-25T03:52:44.261Z,12.28
2019-02-25T03:54:47.737Z,12.47
2019-02-25T03:56:51.020Z,12.40
2019-02-25T03:58:54.292Z,12.70
2019-02-25T04:00:57.917Z,12.80
2019-02-25T04:03:02.202Z,12.05
2019-02-25T04:05:06.512Z,13.32
2019-02-25T04:07:10.241Z,12.50
2019-02-25T04:09:13.597Z,13.15
2019-02-25T04:11:17.082Z,13.58
2019-02-25T04:13:20.680Z,14.03
2019-02-25T04:15:25.596Z,13.18
2019-02-25T04:17:28.903Z,12.40
2019-02-25T04:19:32.257Z,13.88
2019-02-25T04:21:36.441Z,13.32
2019-02-25T04:23:40.245Z,13.40
2019-02-25T04:25:43.619Z,12.82
2019-02-25T04:27:46.960Z,13.88
2019-02-25T04:29:50.362Z,13.00
2019-02-25T04:31:53.724Z,12.68
2019-02-25T04:33:57.002Z,13.30
2019-02-25T04:36:00.481Z,13.25
2019-02-25T04:38:03.870Z,24.52
2019-02-25T04:40:09.889Z,26.55
2019-02-25T04:42:13.425Z,18.27
2019-02-25T04:44:17.044Z,19.55
2019-02-25T04:46:20.767Z,13.88
2019-02-25T04:48:24.169Z,13.45
2019-02-25T04:50:27.460Z,11.85
2019-02-25T04:52:30.822Z,13.45
2019-02-25T04:54:34.205Z,12.40
2019-02-25T04:56:37.805Z,12.90
2019-02-25T04:58:41.253Z,12.82
2019-02-25T05:00:44.681Z,13.43
2019-02-25T05:02:48.031Z,11.65
2019-02-25T05:04:51.381Z,13.15
2019-02-25T05:06:54.704Z,14.05
2019-02-25T05:08:58.277Z,13.08
2019-02-25T05:11:01.619Z,14.23
2019-02-25T05:13:06.664Z,13.28
2019-02-25T05:15:11.851Z,14.15
2019-02-25T05:17:15.292Z,13.38
2019-02-25T05:19:18.917Z,13.08
2019-02-25T05:21:22.266Z,14.23
2019-02-25T05:23:25.636Z,13.93
2019-02-25T05:25:29.000Z,13.15
2019-02-25T05:27:32.350Z,13.15
2019-02-25T05:29:35.685Z,14.00
2019-02-25T05:31:39.049Z,12.58
2019-02-25T05:33:42.464Z,14.65
2019-02-25T05:35:45.741Z,13.98
2019-02-25T05:37:49.017Z,14.63
2019-02-25T05:39:53.045Z,13.65
2019-02-25T05:41:56.389Z,14.45
2019-02-25T05:43:59.936Z,14.35
2019-02-25T05:46:03.474Z,13.62
2019-02-25T05:48:06.826Z,13.10
2019-02-25T05:50:18.585Z,13.70
2019-02-25T05:52:21.860Z,15.15
2019-02-25T05:54:25.513Z,15.50
2019-02-25T05:56:28.873Z,16.23
2019-02-25T05:58:32.601Z,14.75
2019-02-25T06:00:36.417Z,15.28
2019-02-25T06:02:39.772Z,14.78
2019-02-25T06:04:43.110Z,13.98
2019-02-25T06:06:46.780Z,15.28
2019-02-25T06:08:50.057Z,15.03
2019-02-25T06:10:53.408Z,14.90
2019-02-25T06:12:56.884Z,15.25
2019-02-25T06:15:00.214Z,15.70
2019-02-25T06:17:04.129Z,16.75
2019-02-25T06:19:08.250Z,14.90
2019-02-25T06:21:11.597Z,15.25
2019-02-25T06:23:15.252Z,14.68
2019-02-25T06:25:18.553Z,15.35
2019-02-25T06:27:30.441Z,15.35
2019-02-25T06:29:26.941Z,16.45
2019-02-25T06:31:30.395Z,15.72
2019-02-25T06:33:33.742Z,16.87
2019-02-25T06:35:37.942Z,17.45
2019-02-25T06:37:41.291Z,16.35
2019-02-25T06:39:44.687Z,15.30
2019-02-25T06:41:48.268Z,17.40
2019-02-25T06:43:51.636Z,16.15
2019-02-25T06:45:55.028Z,16.07
2019-02-25T06:47:58.308Z,16.48
2019-02-25T06:50:01.893Z,18.17
2019-02-25T06:52:05.517Z,16.55
2019-02-25T06:54:08.966Z,16.42
2019-02-25T06:56:12.364Z,17.67
2019-02-25T06:58:15.649Z,25.80
2019-02-25T07:00:20.424Z,28.70
2019-02-25T07:02:23.839Z,32.50
2019-02-25T07:04:31.748Z,20.02
2019-02-25T07:06:36.740Z,21.30
2019-02-25T07:08:56.636Z,74.30
2019-02-25T07:13:18.105Z,25.20
2019-02-25T07:15:23.029Z,21.73
2019-02-25T07:17:42.787Z,19.65
2019-02-25T07:19:47.897Z,21.75
2019-02-25T07:21:56.092Z,20.57
2019-02-25T07:24:07.360Z,20.48
2019-02-25T07:26:21.833Z,20.60
2019-02-25T07:28:26.824Z,21.40
2019-02-25T07:30:34.739Z,21.73
2019-02-25T07:32:42.664Z,33.58
2019-02-25T07:34:59.927Z,27.15
2019-02-25T07:37:05.218Z,23.73
2019-02-25T07:39:11.142Z,39.25
2019-02-25T07:41:19.489Z,32.85
2019-02-25T07:43:40.815Z,32.83
2019-02-25T07:45:51.580Z,22.98
2019-02-25T07:47:56.752Z,30.30
2019-02-25T07:50:07.572Z,28.38
2019-02-25T07:52:15.415Z,49.58
2019-02-25T07:54:23.162Z,44.70
2019-02-25T07:56:31.141Z,99.15
2019-02-25T07:58:42.555Z,60.48
2019-02-25T08:01:03.778Z,77.32
2019-02-25T08:03:15.088Z,45.28
2019-02-25T08:05:38.240Z,42.15
2019-02-25T08:07:46.255Z,32.25
2019-02-25T08:09:51.245Z,42.75
2019-02-25T08:12:12.717Z,45.75
2019-02-25T08:14:26.706Z,47.50
2019-02-25T08:16:46.804Z,36.05
2019-02-25T08:18:54.528Z,31.68
2019-02-25T08:21:05.492Z,27.45
2019-02-25T08:23:10.427Z,33.73
2019-02-25T08:25:18.252Z,28.85
2019-02-25T08:27:26.329Z,27.15
2019-02-25T08:29:37.477Z,29.10
2019-02-25T08:31:45.221Z,37.23
2019-02-25T08:33:59.229Z,49.15
2019-02-25T08:36:28.716Z,35.45
2019-02-25T08:41:12.837Z,32.85
2019-02-25T08:43:36.001Z,39.27
2019-02-25T08:45:57.968Z,34.80
2019-02-25T08:48:06.201Z,33.23
2019-02-25T08:50:12.152Z,40.48
2019-02-25T08:52:15.754Z,41.48
2019-02-25T08:54:19.106Z,35.83
2019-02-25T08:56:22.434Z,48.78
2019-02-25T08:58:25.752Z,41.50
2019-02-25T09:00:29.096Z,32.05
2019-02-25T09:02:32.381Z,35.65
2019-02-25T09:04:35.656Z,36.08
2019-02-25T09:06:39.044Z,35.35
2019-02-25T09:08:42.692Z,31.48
2019-02-25T09:10:46.358Z,27.50
2019-02-25T09:12:49.644Z,37.42
2019-02-25T09:14:53.298Z,60.55
2019-02-25T09:16:56.976Z,40.60
2019-02-25T09:19:00.321Z,27.22
2019-02-25T09:21:03.683Z,29.82
2019-02-25T09:23:07.032Z,29.75
2019-02-25T09:25:12.954Z,34.00
2019-02-25T09:27:16.232Z,35.45
2019-02-25T09:29:20.093Z,32.48
2019-02-25T09:31:23.369Z,38.42
2019-02-25T09:33:26.658Z,39.38
2019-02-25T09:35:29.999Z,38.63
2019-02-25T09:37:33.441Z,45.92
2019-02-25T09:39:36.784Z,34.55
2019-02-25T09:41:40.426Z,31.27
2019-02-25T09:43:43.882Z,47.23
2019-02-25T09:45:47.252Z,115.25
2019-02-25T09:47:50.809Z,54.08
2019-02-25T09:49:54.612Z,37.78
2019-02-25T09:51:57.893Z,31.05
2019-02-25T09:54:01.733Z,34.80
2019-02-25T09:56:05.428Z,36.08
2019-02-25T09:58:09.142Z,45.85
2019-02-25T10:00:22.704Z,46.28
2019-02-25T10:02:26.205Z,45.58
2019-02-25T10:04:30.953Z,32.55
2019-02-25T10:06:34.694Z,36.08
2019-02-25T10:08:38.352Z,33.53
2019-02-25T10:10:41.917Z,45.45
2019-02-25T10:12:45.496Z,48.60
2019-02-25T10:14:49.589Z,54.08
2019-02-25T10:16:53.967Z,31.00
2019-02-25T10:18:57.804Z,32.45
2019-02-25T10:21:05.404Z,31.77
2019-02-25T10:23:08.682Z,28.00
2019-02-25T10:25:12.173Z,29.75
2019-02-25T10:27:15.788Z,30.95
2019-02-25T10:29:19.069Z,36.25
2019-02-25T10:31:22.345Z,34.60
2019-02-25T10:33:25.624Z,31.95
2019-02-25T10:35:29.980Z,34.70
2019-02-25T10:37:34.197Z,35.55
2019-02-25T10:39:37.936Z,52.60
2019-02-25T10:41:41.216Z,42.10
2019-02-25T10:43:45.221Z,26.70
2019-02-25T10:45:48.492Z,27.58
2019-02-25T10:47:57.543Z,34.30
2019-02-25T10:49:58.701Z,26.77
2019-02-25T10:52:02.616Z,26.85
2019-02-25T10:54:05.972Z,39.67
2019-02-25T10:56:16.708Z,27.65
2019-02-25T10:58:20.189Z,34.45
2019-02-25T11:00:23.859Z,27.25
2019-02-25T11:02:27.220Z,27.25
2019-02-25T11:04:30.568Z,24.15
2019-02-25T11:06:35.618Z,27.42
2019-02-25T11:08:41.542Z,30.50
2019-02-25T11:10:50.779Z,24.92
2019-02-25T11:12:55.930Z,31.42
2019-02-25T11:15:00.236Z,22.85
2019-02-25T11:17:03.757Z,28.47
2019-02-25T11:19:08.740Z,28.95
2019-02-25T11:21:12.021Z,28.45
2019-02-25T11:23:17.642Z,25.15
2019-02-25T11:25:21.586Z,22.52
2019-02-25T11:27:25.704Z,26.48
2019-02-25T11:29:29.921Z,24.95
2019-02-25T11:31:33.276Z,28.85
2019-02-25T11:33:36.814Z,26.50
2019-02-25T11:35:41.176Z,25.45
2019-02-25T11:37:45.176Z,26.45
2019-02-25T11:39:49.423Z,28.17
2019-02-25T11:41:52.821Z,30.37
2019-02-25T11:43:56.168Z,29.87
2019-02-25T11:45:59.451Z,42.00
2019-02-25T11:48:02.837Z,43.40
2019-02-25T11:50:09.679Z,27.25
2019-02-25T11:52:13.041Z,24.95
2019-02-25T11:54:16.393Z,29.45
2019-02-25T11:56:19.938Z,29.18
2019-02-25T11:58:23.615Z,23.30
2019-02-25T12:00:28.958Z,23.25
2019-02-25T12:02:32.601Z,24.70
2019-02-25T12:04:36.068Z,27.73
2019-02-25T12:06:39.370Z,23.75
2019-02-25T12:08:42.652Z,75.80
2019-02-25T12:10:45.929Z,29.10
2019-02-25T12:12:49.217Z,29.85
2019-02-25T12:14:53.029Z,29.60
2019-02-25T12:16:56.680Z,28.45
2019-02-25T12:18:59.956Z,35.25
2019-02-25T12:21:04.444Z,34.63
2019-02-25T12:23:08.065Z,28.12
2019-02-25T12:25:24.801Z,27.40
2019-02-25T12:27:28.084Z,24.15
2019-02-25T12:29:31.719Z,23.22
2019-02-25T12:31:35.365Z,22.35
2019-02-25T12:33:38.720Z,24.25
2019-02-25T12:35:42.446Z,23.07
2019-02-25T12:37:46.053Z,30.70
2019-02-25T12:39:49.445Z,23.95
2019-02-25T12:41:52.729Z,27.65
2019-02-25T12:43:56.009Z,21.70
2019-02-25T12:45:59.369Z,20.25
2019-02-25T12:48:02.834Z,22.15
2019-02-25T12:50:09.273Z,23.05
2019-02-25T12:52:12.969Z,23.38
2019-02-25T12:54:16.256Z,24.90
2019-02-25T12:56:19.887Z,21.40
2019-02-25T12:58:23.613Z,19.42
2019-02-25T13:00:26.966Z,18.12
2019-02-25T13:02:30.475Z,20.35
2019-02-25T13:04:33.944Z,23.32
2019-02-25T13:06:37.557Z,20.88
2019-02-25T13:08:40.922Z,29.98
2019-02-25T13:10:46.098Z,22.32
2019-02-25T13:12:51.627Z,22.00
2019-02-25T13:14:55.085Z,22.85
2019-02-25T13:16:58.440Z,17.85
2019-02-25T13:19:02.197Z,19.05
2019-02-25T13:21:06.289Z,19.07
2019-02-25T13:23:09.641Z,20.27
2019-02-25T13:25:24.526Z,23.45
2019-02-25T13:27:27.853Z,26.93
2019-02-25T13:29:31.215Z,23.07
2019-02-25T13:31:34.890Z,21.80
2019-02-25T13:33:38.249Z,24.27
2019-02-25T13:35:41.609Z,18.75
2019-02-25T13:37:45.238Z,22.87
2019-02-25T13:39:49.806Z,34.88
2019-02-25T13:41:53.246Z,20.77
2019-02-25T13:43:56.595Z,19.67
2019-02-25T13:45:59.972Z,21.45
2019-02-25T13:48:03.388Z,25.15
2019-02-25T13:50:14.647Z,19.55
2019-02-25T13:52:17.992Z,22.10
2019-02-25T13:54:21.360Z,19.15
2019-02-25T13:56:24.918Z,40.43
2019-02-25T13:58:28.276Z,34.33
2019-02-25T14:00:31.681Z,24.95
2019-02-25T14:02:35.359Z,28.42
2019-02-25T14:04:38.760Z,26.73
2019-02-25T14:06:42.126Z,24.80
2019-02-25T14:08:45.545Z,20.40
2019-02-25T14:10:48.900Z,25.20
2019-02-25T14:12:52.369Z,24.18
2019-02-25T14:14:56.126Z,19.15
2019-02-25T14:16:59.528Z,23.32
2019-02-25T14:19:03.217Z,25.77
2019-02-25T14:21:06.921Z,25.43
2019-02-25T14:23:10.617Z,27.65
2019-02-25T14:25:31.845Z,24.77
2019-02-25T14:27:35.706Z,24.70
2019-02-25T14:29:39.058Z,27.05
2019-02-25T14:31:42.470Z,27.52
2019-02-25T14:33:46.144Z,30.45
2019-02-25T14:35:50.349Z,24.82
2019-02-25T14:37:57.222Z,24.63
2019-02-25T14:40:03.375Z,23.70
2019-02-25T14:42:06.783Z,26.68
2019-02-25T14:44:11.454Z,23.90
2019-02-25T14:46:17.319Z,22.22
2019-02-25T14:48:21.017Z,23.50
2019-02-25T14:50:25.391Z,21.02
2019-02-25T14:52:29.270Z,22.27
2019-02-25T14:54:34.314Z,22.10
2019-02-25T14:56:37.844Z,25.50
2019-02-25T14:58:42.614Z,25.37
2019-02-25T15:00:46.230Z,23.73
2019-02-25T15:02:50.364Z,21.90
2019-02-25T15:04:53.835Z,23.70
2019-02-25T15:06:57.328Z,22.42
2019-02-25T15:09:01.807Z,24.37
2019-02-25T15:11:07.152Z,22.75
2019-02-25T15:13:11.688Z,21.48
2019-02-25T15:15:16.478Z,23.45
2019-02-25T15:17:19.967Z,24.05
2019-02-25T15:19:23.289Z,22.48
2019-02-25T15:21:26.733Z,24.92
2019-02-25T15:23:30.398Z,27.25
2019-02-25T15:25:37.242Z,28.05
2019-02-25T15:27:40.309Z,27.27
2019-02-25T15:29:46.887Z,25.68
2019-02-25T15:31:50.923Z,27.55
2019-02-25T15:33:55.636Z,28.77
2019-02-25T15:36:01.274Z,61.80
2019-02-25T15:38:04.421Z,42.10
2019-02-25T15:40:14.590Z,32.80
2019-02-25T15:42:18.526Z,37.35
2019-02-25T15:44:21.881Z,53.58
2019-02-25T15:46:27.010Z,36.20
2019-02-25T15:48:30.914Z,30.15
2019-02-25T15:50:36.084Z,36.28
2019-02-25T15:52:40.296Z,36.80
2019-02-25T15:54:43.791Z,37.98
2019-02-25T15:56:47.744Z,33.30
2019-02-25T15:58:52.004Z,41.75
2019-02-25T16:00:55.712Z,44.08
2019-02-25T16:02:59.066Z,47.27
2019-02-25T16:05:04.173Z,46.55
2019-02-25T16:07:08.383Z,47.53
2019-02-25T16:09:17.066Z,45.65
2019-02-25T16:11:20.660Z,44.77
2019-02-25T16:13:23.973Z,51.85
2019-02-25T16:15:27.328Z,48.23
2019-02-25T16:17:30.684Z,66.40
2019-02-25T16:19:41.382Z,46.45
2019-02-25T16:21:41.008Z,54.08
2019-02-25T16:23:45.376Z,62.35
2019-02-25T16:25:50.529Z,62.20
2019-02-25T16:27:54.390Z,65.78
2019-02-25T16:29:58.681Z,56.45
2019-02-25T16:32:03.196Z,92.27
2019-02-25T16:34:06.796Z,64.97
2019-02-25T16:36:10.211Z,63.68
2019-02-25T16:38:13.560Z,75.67
2019-02-25T16:40:24.363Z,70.52
2019-02-25T16:42:26.259Z,85.00
2019-02-25T16:44:31.034Z,69.87
2019-02-25T16:46:38.535Z,65.12
2019-02-25T16:48:39.660Z,64.45
2019-02-25T16:50:45.804Z,60.35
2019-02-25T16:52:51.061Z,81.00
2019-02-25T16:54:54.710Z,82.95
2019-02-25T16:56:59.481Z,84.15
2019-02-25T16:59:10.618Z,194.62
2019-02-25T17:01:10.400Z,187.05
2019-02-25T17:03:14.283Z,149.55
2019-02-25T17:05:19.319Z,94.55
2019-02-25T17:07:25.394Z,64.72
2019-02-25T17:09:31.946Z,52.85
2019-02-25T17:11:37.385Z,65.47
2019-02-25T17:13:41.470Z,89.00
2019-02-25T17:15:46.458Z,94.70
2019-02-25T17:17:52.476Z,55.38
2019-02-25T17:19:55.600Z,57.80
2019-02-25T17:21:58.961Z,55.70
2019-02-25T17:24:03.553Z,256.95
2019-02-25T17:26:08.205Z,97.88
2019-02-25T17:28:15.322Z,85.15
2019-02-25T17:30:20.307Z,69.05
2019-02-25T17:32:25.473Z,181.95
2019-02-25T17:34:32.237Z,102.60
2019-02-25T17:36:36.077Z,92.37
2019-02-25T17:38:40.692Z,73.67
2019-02-25T17:40:45.408Z,78.00
2019-02-25T17:42:49.490Z,109.70
2019-02-25T17:44:55.633Z,92.95
2019-02-25T17:47:00.219Z,63.63
2019-02-25T17:49:06.022Z,52.43
2019-02-25T17:51:09.831Z,50.35
2019-02-25T17:53:13.164Z,89.60
2019-02-25T17:55:20.081Z,98.35
2019-02-25T17:57:23.440Z,83.42
2019-02-25T17:59:27.781Z,65.15
2019-02-25T18:01:32.165Z,69.72
2019-02-25T18:03:37.406Z,103.07
2019-02-25T18:05:43.248Z,90.62
2019-02-25T18:07:48.549Z,78.00
2019-02-25T18:09:52.817Z,56.45
2019-02-25T18:11:56.429Z,52.85
2019-02-25T18:13:59.809Z,50.33
2019-02-25T18:16:03.488Z,60.83
2019-02-25T18:18:09.296Z,58.50
2019-02-25T18:20:12.203Z,56.37
2019-02-25T18:22:17.259Z,63.73
2019-02-25T18:24:20.953Z,60.48
2019-02-25T18:26:24.661Z,50.90
2019-02-25T18:28:28.029Z,50.52
2019-02-25T18:30:32.752Z,56.53
2019-02-25T18:32:37.095Z,348.65
2019-02-25T18:34:41.929Z,232.83
2019-02-25T18:36:46.860Z,166.55
2019-02-25T18:38:52.640Z,244.37
2019-02-25T18:40:55.782Z,192.92
2019-02-25T18:43:00.394Z,197.13
2019-02-25T18:45:08.340Z,348.07
2019-02-25T18:47:12.213Z,236.00
2019-02-25T18:49:15.632Z,288.32
2019-02-25T18:51:19.025Z,174.57
2019-02-25T18:53:22.870Z,96.70
2019-02-25T18:55:29.400Z,58.33
2019-02-25T18:57:33.405Z,131.10
2019-02-25T18:59:37.088Z,68.55
2019-02-25T19:01:40.714Z,76.97
2019-02-25T19:03:44.149Z,79.85
2019-02-25T19:05:49.004Z,66.77
2019-02-25T19:07:53.290Z,52.67
2019-02-25T19:09:58.814Z,46.00
2019-02-25T19:12:02.366Z,46.83
2019-02-25T19:14:06.110Z,45.50
2019-02-25T19:16:09.634Z,45.45
2019-02-25T19:18:13.797Z,54.33
2019-02-25T19:20:18.265Z,156.80
2019-02-25T19:22:22.147Z,72.58
2019-02-25T19:24:26.069Z,145.15
2019-02-25T19:26:29.535Z,89.83
2019-02-25T19:28:33.616Z,50.88
2019-02-25T19:30:37.070Z,45.70
2019-02-25T19:32:40.711Z,44.85
2019-02-25T19:34:44.342Z,46.15
2019-02-25T19:36:47.706Z,48.63
2019-02-25T19:38:51.277Z,47.73
2019-02-25T19:40:55.935Z,45.50
2019-02-25T19:43:03.673Z,43.13
2019-02-25T19:45:10.078Z,40.60
2019-02-25T19:47:14.360Z,36.28
2019-02-25T19:49:20.643Z,34.18
2019-02-25T19:51:25.266Z,35.05
2019-02-25T19:53:33.794Z,33.25
2019-02-25T19:55:36.157Z,34.55
2019-02-25T19:57:42.547Z,35.33
2019-02-25T19:59:46.222Z,57.48
2019-02-25T20:01:51.762Z,61.23
2019-02-25T20:03:55.236Z,64.95
2019-02-25T20:05:58.595Z,52.55
2019-02-25T20:08:02.419Z,56.88
2019-02-25T20:10:11.583Z,38.65
2019-02-25T20:12:20.438Z,33.18
2019-02-25T20:14:22.012Z,32.85
2019-02-25T20:16:28.064Z,34.38
2019-02-25T20:18:31.262Z,33.48
2019-02-25T20:20:37.000Z,32.13
2019-02-25T20:22:40.860Z,32.00
2019-02-25T20:24:46.584Z,32.10
2019-02-25T20:26:52.581Z,34.10
2019-02-25T20:28:54.993Z,29.77
2019-02-25T20:30:58.329Z,30.70
2019-02-25T20:33:03.856Z,37.70
2019-02-25T20:35:10.144Z,31.12
2019-02-25T20:37:13.426Z,31.62
2019-02-25T20:39:17.152Z,31.93
2019-02-25T20:41:22.261Z,32.45
2019-02-25T20:43:25.847Z,59.05
2019-02-25T20:45:35.715Z,83.05
2019-02-25T20:47:39.416Z,73.78
2019-02-25T20:49:43.009Z,83.70
2019-02-25T20:51:47.837Z,63.75
2019-02-25T20:53:52.880Z,122.05
2019-02-25T20:55:57.184Z,77.30
2019-02-25T20:58:01.604Z,48.23
2019-02-25T21:00:09.436Z,44.85
2019-02-25T21:02:16.199Z,42.90
2019-02-25T21:04:20.182Z,44.00
2019-02-25T21:06:24.608Z,34.03
2019-02-25T21:08:27.965Z,45.75
2019-02-25T21:10:35.029Z,32.45
2019-02-25T21:12:37.041Z,54.20
2019-02-25T21:14:42.743Z,116.33
2019-02-25T21:16:45.664Z,96.65
2019-02-25T21:18:50.807Z,82.02
2019-02-25T21:20:54.120Z,130.78
2019-02-25T21:23:02.132Z,102.12
2019-02-25T21:25:04.750Z,110.12
2019-02-25T21:27:09.997Z,147.55
2019-02-25T21:29:13.507Z,155.52
2019-02-25T21:31:19.101Z,126.62
2019-02-25T21:33:25.399Z,148.80
2019-02-25T21:35:30.116Z,127.85
2019-02-25T21:37:33.398Z,119.57
2019-02-25T21:39:38.590Z,111.60
2019-02-25T21:41:43.645Z,119.90
2019-02-25T21:43:49.084Z,70.42
2019-02-25T21:45:56.464Z,129.05
2019-02-25T21:48:02.009Z,46.08
2019-02-25T21:50:09.607Z,51.35
2019-02-25T21:52:14.791Z,32.93
2019-02-25T21:54:17.773Z,18.70
2019-02-25T21:56:23.276Z,18.75
2019-02-25T21:58:27.762Z,19.20
2019-02-25T22:00:32.877Z,20.88
2019-02-25T22:02:39.213Z,19.73
2019-02-25T22:04:43.078Z,20.37
2019-02-25T22:06:49.005Z,18.82
2019-02-25T22:08:53.988Z,18.98
2019-02-25T22:10:59.581Z,20.97
2019-02-25T22:13:06.703Z,18.73
2019-02-25T22:15:12.960Z,19.95
2019-02-25T22:17:19.534Z,18.92
2019-02-25T22:19:23.236Z,17.85
2019-02-25T22:21:26.599Z,19.02
2019-02-25T22:23:30.658Z,17.23
2019-02-25T22:25:35.285Z,16.62
2019-02-25T22:27:39.095Z,15.45
2019-02-25T22:29:45.130Z,16.50
2019-02-25T22:31:48.668Z,15.53
2019-02-25T22:33:51.952Z,15.30
2019-02-25T22:35:55.831Z,16.02
2019-02-25T22:38:00.428Z,15.53
2019-02-25T22:40:07.971Z,15.35
2019-02-25T22:42:13.773Z,14.20
2019-02-25T22:44:16.756Z,14.65
2019-02-25T22:46:20.375Z,15.75
2019-02-25T22:48:23.720Z,14.07
2019-02-25T22:50:29.147Z,14.20
2019-02-25T22:52:33.553Z,13.05
2019-02-25T22:54:39.469Z,14.18
2019-02-25T22:56:44.174Z,13.50
2019-02-25T22:58:47.874Z,13.90
2019-02-25T23:00:52.864Z,15.03
2019-02-25T23:02:57.015Z,14.45
2019-02-25T23:05:00.374Z,14.33
2019-02-25T23:07:03.754Z,14.55
2019-02-25T23:09:12.206Z,14.65
2019-02-25T23:11:14.438Z,13.95
2019-02-25T23:13:19.895Z,14.15
2019-02-25T23:15:25.214Z,14.33
2019-02-25T23:17:31.134Z,14.35
2019-02-25T23:19:34.272Z,14.33
2019-02-25T23:21:38.467Z,14.65
2019-02-25T23:23:42.719Z,15.10
2019-02-25T23:25:47.401Z,13.78
2019-02-25T23:27:53.393Z,13.75
2019-02-25T23:29:56.312Z,13.93
2019-02-25T23:32:02.521Z,15.25
2019-02-25T23:34:07.560Z,14.85
2019-02-25T23:36:10.963Z,15.45
2019-02-25T23:38:16.228Z,15.20
2019-02-25T23:40:19.821Z,15.10
2019-02-25T23:42:23.520Z,16.20
2019-02-25T23:44:27.112Z,17.40
2019-02-25T23:46:32.155Z,16.05
2019-02-25T23:48:38.398Z,16.12
2019-02-25T23:50:41.128Z,16.12
2019-02-25T23:52:44.413Z,15.65
2019-02-25T23:54:49.525Z,16.00
2019-02-25T23:56:55.110Z,15.68
2019-02-25T23:58:57.775Z,16.05
